sensor_id;sensor_type;location;lat;lon;timestamp;temperature;humidity
17152;DHT22;8691;50.828;4.700;2023-02-12T00:01:07;7.30;99.90
17152;DHT22;8691;50.828;4.700;2023-02-12T00:03:30;7.30;99.90
17152;DHT22;8691;50.828;4.700;2023-02-12T00:05:59;7.30;99.90
17152;DHT22;8691;50.828;4.700;2023-02-12T00:08:23;7.30;99.90
17152;DHT22;8691;50.828;4.700;2023-02-12T00:10:50;7.30;99.90
17152;DHT22;8691;50.828;4.700;2023-02-12T00:13:16;7.30;99.90
17152;DHT22;8691;50.828;4.700;2023-02-12T00:15:44;7.30;99.90
17152;DHT22;8691;50.828;4.700;2023-02-12T00:18:10;7.30;99.90
17152;DHT22;8691;50.828;4.700;2023-02-12T00:20:38;7.30;99.90
17152;DHT22;8691;50.828;4.700;2023-02-12T00:23:04;7.30;99.90
17152;DHT22;8691;50.828;4.700;2023-02-12T00:25:32;7.20;99.90
17152;DHT22;8691;50.828;4.700;2023-02-12T00:27:58;7.20;99.90
17152;DHT22;8691;50.828;4.700;2023-02-12T00:30:26;7.30;99.90
17152;DHT22;8691;50.828;4.700;2023-02-12T00:32:52;7.30;99.90
17152;DHT22;8691;50.828;4.700;2023-02-12T00:35:19;7.30;99.90
17152;DHT22;8691;50.828;4.700;2023-02-12T00:37:45;7.20;99.90
17152;DHT22;8691;50.828;4.700;2023-02-12T00:40:13;7.30;99.90
17152;DHT22;8691;50.828;4.700;2023-02-12T00:42:41;7.30;99.90
17152;DHT22;8691;50.828;4.700;2023-02-12T00:45:08;7.30;99.90
17152;DHT22;8691;50.828;4.700;2023-02-12T00:47:35;7.30;99.90
17152;DHT22;8691;50.828;4.700;2023-02-12T00:50:02;7.20;99.90
17152;DHT22;8691;50.828;4.700;2023-02-12T00:52:28;7.20;99.90
17152;DHT22;8691;50.828;4.700;2023-02-12T00:54:55;7.20;99.90
17152;DHT22;8691;50.828;4.700;2023-02-12T00:57:22;7.20;99.90
17152;DHT22;8691;50.828;4.700;2023-02-12T00:59:49;7.20;99.90
17152;DHT22;8691;50.828;4.700;2023-02-12T01:02:15;7.20;99.90
17152;DHT22;8691;50.828;4.700;2023-02-12T01:04:43;7.20;99.90
17152;DHT22;8691;50.828;4.700;2023-02-12T01:07:09;7.20;99.90
17152;DHT22;8691;50.828;4.700;2023-02-12T01:09:36;7.20;99.90
17152;DHT22;8691;50.828;4.700;2023-02-12T01:12:03;7.20;99.90
17152;DHT22;8691;50.828;4.700;2023-02-12T01:14:30;7.30;99.90
17152;DHT22;8691;50.828;4.700;2023-02-12T01:16:57;7.30;99.90
17152;DHT22;8691;50.828;4.700;2023-02-12T01:19:24;7.30;99.90
17152;DHT22;8691;50.828;4.700;2023-02-12T01:21:50;7.20;99.90
17152;DHT22;8691;50.828;4.700;2023-02-12T01:24:17;7.20;99.90
17152;DHT22;8691;50.828;4.700;2023-02-12T01:26:43;7.20;99.90
17152;DHT22;8691;50.828;4.700;2023-02-12T01:29:10;7.20;99.90
17152;DHT22;8691;50.828;4.700;2023-02-12T01:31:37;7.20;99.90
17152;DHT22;8691;50.828;4.700;2023-02-12T01:34:05;7.10;99.90
17152;DHT22;8691;50.828;4.700;2023-02-12T01:36:31;7.20;99.90
17152;DHT22;8691;50.828;4.700;2023-02-12T01:38:57;7.20;99.90
17152;DHT22;8691;50.828;4.700;2023-02-12T01:41:26;7.10;99.90
17152;DHT22;8691;50.828;4.700;2023-02-12T01:44:04;7.10;99.90
17152;DHT22;8691;50.828;4.700;2023-02-12T01:46:30;7.20;99.90
17152;DHT22;8691;50.828;4.700;2023-02-12T01:48:56;7.10;99.90
17152;DHT22;8691;50.828;4.700;2023-02-12T01:51:23;7.10;99.90
17152;DHT22;8691;50.828;4.700;2023-02-12T01:53:51;7.10;99.90
17152;DHT22;8691;50.828;4.700;2023-02-12T01:56:17;7.10;99.90
17152;DHT22;8691;50.828;4.700;2023-02-12T01:58:43;7.10;99.90
17152;DHT22;8691;50.828;4.700;2023-02-12T02:01:23;7.10;99.90
17152;DHT22;8691;50.828;4.700;2023-02-12T02:03:47;7.10;99.90
17152;DHT22;8691;50.828;4.700;2023-02-12T02:06:21;7.10;99.90
17152;DHT22;8691;50.828;4.700;2023-02-12T02:08:46;7.10;99.90
17152;DHT22;8691;50.828;4.700;2023-02-12T02:11:12;7.10;99.90
17152;DHT22;8691;50.828;4.700;2023-02-12T02:13:58;7.10;99.90
17152;DHT22;8691;50.828;4.700;2023-02-12T02:16:46;7.10;99.90
17152;DHT22;8691;50.828;4.700;2023-02-12T02:25:22;7.00;99.90
17152;DHT22;8691;50.828;4.700;2023-02-12T02:30:27;7.00;99.90
17152;DHT22;8691;50.828;4.700;2023-02-12T02:33:09;7.00;99.90
17152;DHT22;8691;50.828;4.700;2023-02-12T02:38:59;7.00;99.90
17152;DHT22;8691;50.828;4.700;2023-02-12T02:43:49;7.00;99.90
17152;DHT22;8691;50.828;4.700;2023-02-12T02:46:54;7.00;99.90
17152;DHT22;8691;50.828;4.700;2023-02-12T02:48:55;6.90;99.90
17152;DHT22;8691;50.828;4.700;2023-02-12T02:51:25;6.90;99.90
17152;DHT22;8691;50.828;4.700;2023-02-12T02:54:08;6.90;99.90
17152;DHT22;8691;50.828;4.700;2023-02-12T02:56:34;6.90;99.90
17152;DHT22;8691;50.828;4.700;2023-02-12T02:59:02;6.80;99.90
17152;DHT22;8691;50.828;4.700;2023-02-12T03:01:31;6.80;99.90
17152;DHT22;8691;50.828;4.700;2023-02-12T03:04:15;6.80;99.90
17152;DHT22;8691;50.828;4.700;2023-02-12T03:06:40;6.80;99.90
17152;DHT22;8691;50.828;4.700;2023-02-12T03:09:12;6.80;99.90
17152;DHT22;8691;50.828;4.700;2023-02-12T03:11:35;6.80;99.90
17152;DHT22;8691;50.828;4.700;2023-02-12T03:14:12;6.80;99.90
17152;DHT22;8691;50.828;4.700;2023-02-12T03:17:01;6.80;99.90
17152;DHT22;8691;50.828;4.700;2023-02-12T03:19:28;6.80;99.90
17152;DHT22;8691;50.828;4.700;2023-02-12T03:21:54;6.80;99.90
17152;DHT22;8691;50.828;4.700;2023-02-12T03:24:33;6.80;99.90
17152;DHT22;8691;50.828;4.700;2023-02-12T03:29:27;6.80;99.90
17152;DHT22;8691;50.828;4.700;2023-02-12T03:32:11;6.90;99.90
17152;DHT22;8691;50.828;4.700;2023-02-12T03:37:13;6.90;99.90
17152;DHT22;8691;50.828;4.700;2023-02-12T03:39:58;6.90;99.90
17152;DHT22;8691;50.828;4.700;2023-02-12T03:42:31;6.80;99.90
17152;DHT22;8691;50.828;4.700;2023-02-12T03:45:06;6.80;99.90
17152;DHT22;8691;50.828;4.700;2023-02-12T03:47:35;6.80;99.90
17152;DHT22;8691;50.828;4.700;2023-02-12T03:50:12;6.70;99.90
17152;DHT22;8691;50.828;4.700;2023-02-12T03:52:36;6.70;99.90
17152;DHT22;8691;50.828;4.700;2023-02-12T03:55:03;6.70;99.90
17152;DHT22;8691;50.828;4.700;2023-02-12T03:57:32;6.70;99.90
17152;DHT22;8691;50.828;4.700;2023-02-12T03:59:57;6.80;99.90
17152;DHT22;8691;50.828;4.700;2023-02-12T04:02:24;6.80;99.90
17152;DHT22;8691;50.828;4.700;2023-02-12T04:04:51;6.80;99.90
17152;DHT22;8691;50.828;4.700;2023-02-12T04:07:18;6.80;99.90
17152;DHT22;8691;50.828;4.700;2023-02-12T04:09:45;6.80;99.90
17152;DHT22;8691;50.828;4.700;2023-02-12T04:14:52;6.80;99.90
17152;DHT22;8691;50.828;4.700;2023-02-12T04:33:29;6.60;99.90
17152;DHT22;8691;50.828;4.700;2023-02-12T04:35:58;6.60;99.90
17152;DHT22;8691;50.828;4.700;2023-02-12T04:38:40;6.60;99.90
17152;DHT22;8691;50.828;4.700;2023-02-12T04:40:50;6.60;99.90
17152;DHT22;8691;50.828;4.700;2023-02-12T04:43:30;6.60;99.90
17152;DHT22;8691;50.828;4.700;2023-02-12T04:45:56;6.60;99.90
17152;DHT22;8691;50.828;4.700;2023-02-12T04:48:23;6.60;99.90
17152;DHT22;8691;50.828;4.700;2023-02-12T04:50:50;6.60;99.90
17152;DHT22;8691;50.828;4.700;2023-02-12T04:53:17;6.60;99.90
17152;DHT22;8691;50.828;4.700;2023-02-12T04:55:44;6.50;99.90
17152;DHT22;8691;50.828;4.700;2023-02-12T04:58:11;6.60;99.90
17152;DHT22;8691;50.828;4.700;2023-02-12T05:00:37;6.50;99.90
17152;DHT22;8691;50.828;4.700;2023-02-12T05:03:04;6.60;99.90
17152;DHT22;8691;50.828;4.700;2023-02-12T05:05:31;6.50;99.90
17152;DHT22;8691;50.828;4.700;2023-02-12T05:07:57;6.50;99.90
17152;DHT22;8691;50.828;4.700;2023-02-12T05:10:24;6.60;99.90
17152;DHT22;8691;50.828;4.700;2023-02-12T05:12:51;6.60;99.90
17152;DHT22;8691;50.828;4.700;2023-02-12T05:15:18;6.60;99.90
17152;DHT22;8691;50.828;4.700;2023-02-12T05:17:44;6.60;99.90
17152;DHT22;8691;50.828;4.700;2023-02-12T05:20:11;6.60;99.90
17152;DHT22;8691;50.828;4.700;2023-02-12T05:22:38;6.60;99.90
17152;DHT22;8691;50.828;4.700;2023-02-12T05:25:04;6.60;99.90
17152;DHT22;8691;50.828;4.700;2023-02-12T05:27:31;6.60;99.90
17152;DHT22;8691;50.828;4.700;2023-02-12T05:29:58;6.60;99.90
17152;DHT22;8691;50.828;4.700;2023-02-12T05:32:25;6.50;99.90
17152;DHT22;8691;50.828;4.700;2023-02-12T05:34:52;6.50;99.90
17152;DHT22;8691;50.828;4.700;2023-02-12T05:37:18;6.50;99.90
17152;DHT22;8691;50.828;4.700;2023-02-12T05:39:47;6.50;99.90
17152;DHT22;8691;50.828;4.700;2023-02-12T05:42:12;6.50;99.90
17152;DHT22;8691;50.828;4.700;2023-02-12T05:44:39;6.50;99.90
17152;DHT22;8691;50.828;4.700;2023-02-12T05:47:06;6.50;99.90
17152;DHT22;8691;50.828;4.700;2023-02-12T05:49:33;6.60;99.90
17152;DHT22;8691;50.828;4.700;2023-02-12T05:52:00;6.60;99.90
17152;DHT22;8691;50.828;4.700;2023-02-12T05:54:27;6.70;99.90
17152;DHT22;8691;50.828;4.700;2023-02-12T05:56:54;6.60;99.90
17152;DHT22;8691;50.828;4.700;2023-02-12T05:59:22;6.70;99.90
17152;DHT22;8691;50.828;4.700;2023-02-12T06:01:48;6.70;99.90
17152;DHT22;8691;50.828;4.700;2023-02-12T06:04:16;6.60;99.90
17152;DHT22;8691;50.828;4.700;2023-02-12T06:06:41;6.60;99.90
17152;DHT22;8691;50.828;4.700;2023-02-12T06:09:08;6.60;99.90
17152;DHT22;8691;50.828;4.700;2023-02-12T06:11:34;6.60;99.90
17152;DHT22;8691;50.828;4.700;2023-02-12T06:14:02;6.60;99.90
17152;DHT22;8691;50.828;4.700;2023-02-12T06:16:28;6.60;99.90
17152;DHT22;8691;50.828;4.700;2023-02-12T06:18:55;6.50;99.90
17152;DHT22;8691;50.828;4.700;2023-02-12T06:21:22;6.50;99.90
17152;DHT22;8691;50.828;4.700;2023-02-12T06:23:48;6.50;99.90
17152;DHT22;8691;50.828;4.700;2023-02-12T06:26:15;6.40;99.90
17152;DHT22;8691;50.828;4.700;2023-02-12T06:28:41;6.40;99.90
17152;DHT22;8691;50.828;4.700;2023-02-12T06:31:19;6.40;99.90
17152;DHT22;8691;50.828;4.700;2023-02-12T06:33:44;6.40;99.90
17152;DHT22;8691;50.828;4.700;2023-02-12T06:36:11;6.40;99.90
17152;DHT22;8691;50.828;4.700;2023-02-12T06:38:38;6.40;99.90
17152;DHT22;8691;50.828;4.700;2023-02-12T06:41:05;6.40;99.90
17152;DHT22;8691;50.828;4.700;2023-02-12T06:43:32;6.40;99.90
17152;DHT22;8691;50.828;4.700;2023-02-12T06:46:02;6.40;99.90
17152;DHT22;8691;50.828;4.700;2023-02-12T06:48:28;6.40;99.90
17152;DHT22;8691;50.828;4.700;2023-02-12T06:50:55;6.40;99.90
17152;DHT22;8691;50.828;4.700;2023-02-12T06:53:22;6.40;99.90
17152;DHT22;8691;50.828;4.700;2023-02-12T06:55:49;6.40;99.90
17152;DHT22;8691;50.828;4.700;2023-02-12T06:58:16;6.40;99.90
17152;DHT22;8691;50.828;4.700;2023-02-12T07:00:43;6.40;99.90
17152;DHT22;8691;50.828;4.700;2023-02-12T07:03:09;6.40;99.90
17152;DHT22;8691;50.828;4.700;2023-02-12T07:05:38;6.50;99.90
17152;DHT22;8691;50.828;4.700;2023-02-12T07:08:02;6.50;99.90
17152;DHT22;8691;50.828;4.700;2023-02-12T07:10:29;6.50;99.90
17152;DHT22;8691;50.828;4.700;2023-02-12T07:12:56;6.50;99.90
17152;DHT22;8691;50.828;4.700;2023-02-12T07:15:23;6.60;99.90
17152;DHT22;8691;50.828;4.700;2023-02-12T07:17:50;6.70;99.90
17152;DHT22;8691;50.828;4.700;2023-02-12T07:20:17;6.70;99.90
17152;DHT22;8691;50.828;4.700;2023-02-12T07:22:44;6.70;99.90
17152;DHT22;8691;50.828;4.700;2023-02-12T07:25:11;6.70;99.90
17152;DHT22;8691;50.828;4.700;2023-02-12T07:27:38;6.80;99.90
17152;DHT22;8691;50.828;4.700;2023-02-12T07:30:05;6.80;99.90
17152;DHT22;8691;50.828;4.700;2023-02-12T07:32:32;6.80;99.90
17152;DHT22;8691;50.828;4.700;2023-02-12T07:34:59;6.80;99.90
17152;DHT22;8691;50.828;4.700;2023-02-12T07:37:27;6.90;99.90
17152;DHT22;8691;50.828;4.700;2023-02-12T07:39:53;6.80;99.90
17152;DHT22;8691;50.828;4.700;2023-02-12T07:42:21;6.80;99.90
17152;DHT22;8691;50.828;4.700;2023-02-12T07:44:47;6.80;99.90
17152;DHT22;8691;50.828;4.700;2023-02-12T07:47:15;6.80;99.90
17152;DHT22;8691;50.828;4.700;2023-02-12T07:49:41;6.80;99.90
17152;DHT22;8691;50.828;4.700;2023-02-12T07:52:09;6.90;99.90
17152;DHT22;8691;50.828;4.700;2023-02-12T07:54:35;6.90;99.90
17152;DHT22;8691;50.828;4.700;2023-02-12T07:57:02;6.90;99.90
17152;DHT22;8691;50.828;4.700;2023-02-12T07:59:29;6.80;99.90
17152;DHT22;8691;50.828;4.700;2023-02-12T08:01:56;6.80;99.90
17152;DHT22;8691;50.828;4.700;2023-02-12T08:04:23;6.80;99.90
17152;DHT22;8691;50.828;4.700;2023-02-12T08:06:50;6.90;99.90
17152;DHT22;8691;50.828;4.700;2023-02-12T08:09:20;6.80;99.90
17152;DHT22;8691;50.828;4.700;2023-02-12T08:11:42;6.80;99.90
17152;DHT22;8691;50.828;4.700;2023-02-12T08:14:10;6.90;99.90
17152;DHT22;8691;50.828;4.700;2023-02-12T08:16:36;6.90;99.90
17152;DHT22;8691;50.828;4.700;2023-02-12T08:19:02;6.90;99.90
17152;DHT22;8691;50.828;4.700;2023-02-12T08:21:29;6.90;99.90
17152;DHT22;8691;50.828;4.700;2023-02-12T08:23:57;6.90;99.90
17152;DHT22;8691;50.828;4.700;2023-02-12T08:26:27;7.00;99.90
17152;DHT22;8691;50.828;4.700;2023-02-12T08:28:57;7.00;99.90
17152;DHT22;8691;50.828;4.700;2023-02-12T08:31:20;7.10;99.90
17152;DHT22;8691;50.828;4.700;2023-02-12T08:33:46;7.10;99.90
17152;DHT22;8691;50.828;4.700;2023-02-12T08:36:13;7.10;99.90
17152;DHT22;8691;50.828;4.700;2023-02-12T08:38:40;7.00;99.90
17152;DHT22;8691;50.828;4.700;2023-02-12T08:41:07;7.00;99.90
17152;DHT22;8691;50.828;4.700;2023-02-12T08:43:34;7.10;99.90
17152;DHT22;8691;50.828;4.700;2023-02-12T08:46:01;7.10;99.90
17152;DHT22;8691;50.828;4.700;2023-02-12T08:48:28;7.20;99.90
17152;DHT22;8691;50.828;4.700;2023-02-12T08:50:54;7.10;99.90
17152;DHT22;8691;50.828;4.700;2023-02-12T08:53:22;7.30;99.90
17152;DHT22;8691;50.828;4.700;2023-02-12T08:55:48;7.30;99.90
17152;DHT22;8691;50.828;4.700;2023-02-12T08:58:16;7.30;99.90
17152;DHT22;8691;50.828;4.700;2023-02-12T09:00:42;7.30;99.90
17152;DHT22;8691;50.828;4.700;2023-02-12T09:03:09;7.30;99.90
17152;DHT22;8691;50.828;4.700;2023-02-12T09:05:39;7.40;99.90
17152;DHT22;8691;50.828;4.700;2023-02-12T09:08:05;7.40;99.90
17152;DHT22;8691;50.828;4.700;2023-02-12T09:10:31;7.40;99.90
17152;DHT22;8691;50.828;4.700;2023-02-12T09:12:58;7.40;99.90
17152;DHT22;8691;50.828;4.700;2023-02-12T09:15:25;7.50;99.90
17152;DHT22;8691;50.828;4.700;2023-02-12T09:17:52;7.60;99.90
17152;DHT22;8691;50.828;4.700;2023-02-12T09:20:19;7.50;99.90
17152;DHT22;8691;50.828;4.700;2023-02-12T09:22:46;7.60;99.90
17152;DHT22;8691;50.828;4.700;2023-02-12T09:25:13;7.60;99.90
17152;DHT22;8691;50.828;4.700;2023-02-12T09:27:39;7.60;99.90
17152;DHT22;8691;50.828;4.700;2023-02-12T09:30:06;7.70;99.90
17152;DHT22;8691;50.828;4.700;2023-02-12T09:32:33;7.70;99.90
17152;DHT22;8691;50.828;4.700;2023-02-12T09:34:59;7.80;99.90
17152;DHT22;8691;50.828;4.700;2023-02-12T09:37:26;7.90;99.90
17152;DHT22;8691;50.828;4.700;2023-02-12T09:39:53;7.90;99.90
17152;DHT22;8691;50.828;4.700;2023-02-12T09:47:32;8.10;99.90
17152;DHT22;8691;50.828;4.700;2023-02-12T09:52:50;8.20;99.90
17152;DHT22;8691;50.828;4.700;2023-02-12T09:55:17;8.20;99.90
17152;DHT22;8691;50.828;4.700;2023-02-12T09:57:43;8.30;99.90
17152;DHT22;8691;50.828;4.700;2023-02-12T10:00:28;8.20;99.90
17152;DHT22;8691;50.828;4.700;2023-02-12T10:03:04;8.30;99.90
17152;DHT22;8691;50.828;4.700;2023-02-12T10:05:36;8.30;99.90
17152;DHT22;8691;50.828;4.700;2023-02-12T10:10:51;8.40;99.90
17152;DHT22;8691;50.828;4.700;2023-02-12T10:13:40;8.50;99.90
17152;DHT22;8691;50.828;4.700;2023-02-12T10:19:13;8.60;99.90
17152;DHT22;8691;50.828;4.700;2023-02-12T10:26:47;8.70;99.90
17152;DHT22;8691;50.828;4.700;2023-02-12T10:29:17;8.70;99.90
17152;DHT22;8691;50.828;4.700;2023-02-12T10:31:54;8.80;99.90
17152;DHT22;8691;50.828;4.700;2023-02-12T10:34:22;8.90;99.90
17152;DHT22;8691;50.828;4.700;2023-02-12T10:36:46;8.90;99.90
17152;DHT22;8691;50.828;4.700;2023-02-12T10:39:14;8.90;99.90
17152;DHT22;8691;50.828;4.700;2023-02-12T10:42:00;9.00;99.90
17152;DHT22;8691;50.828;4.700;2023-02-12T10:44:24;8.90;99.90
17152;DHT22;8691;50.828;4.700;2023-02-12T10:46:50;9.00;99.90
17152;DHT22;8691;50.828;4.700;2023-02-12T10:49:17;9.00;99.90
17152;DHT22;8691;50.828;4.700;2023-02-12T10:52:10;9.00;99.90
17152;DHT22;8691;50.828;4.700;2023-02-12T10:54:41;9.10;99.90
17152;DHT22;8691;50.828;4.700;2023-02-12T10:57:20;9.10;99.90
17152;DHT22;8691;50.828;4.700;2023-02-12T10:59:43;9.10;99.90
17152;DHT22;8691;50.828;4.700;2023-02-12T11:02:28;9.10;99.90
17152;DHT22;8691;50.828;4.700;2023-02-12T11:04:54;9.10;99.90
17152;DHT22;8691;50.828;4.700;2023-02-12T11:07:21;9.10;99.90
17152;DHT22;8691;50.828;4.700;2023-02-12T11:09:48;9.10;99.90
17152;DHT22;8691;50.828;4.700;2023-02-12T11:12:30;9.10;99.90
17152;DHT22;8691;50.828;4.700;2023-02-12T11:14:54;9.10;99.90
17152;DHT22;8691;50.828;4.700;2023-02-12T11:17:34;9.10;99.90
17152;DHT22;8691;50.828;4.700;2023-02-12T11:22:33;9.20;99.90
17152;DHT22;8691;50.828;4.700;2023-02-12T11:25:02;9.20;99.90
17152;DHT22;8691;50.828;4.700;2023-02-12T11:27:28;9.20;99.90
17152;DHT22;8691;50.828;4.700;2023-02-12T11:32:36;9.20;99.90
17152;DHT22;8691;50.828;4.700;2023-02-12T11:35:16;9.30;99.90
17152;DHT22;8691;50.828;4.700;2023-02-12T11:37:42;9.30;99.90
17152;DHT22;8691;50.828;4.700;2023-02-12T11:40:17;9.30;99.90
17152;DHT22;8691;50.828;4.700;2023-02-12T11:42:42;9.40;99.90
17152;DHT22;8691;50.828;4.700;2023-02-12T11:45:14;9.50;99.90
17152;DHT22;8691;50.828;4.700;2023-02-12T11:47:36;9.60;99.90
17152;DHT22;8691;50.828;4.700;2023-02-12T11:50:17;9.80;99.90
17152;DHT22;8691;50.828;4.700;2023-02-12T11:52:41;9.70;99.90
17152;DHT22;8691;50.828;4.700;2023-02-12T11:55:24;9.70;99.90
17152;DHT22;8691;50.828;4.700;2023-02-12T11:57:50;9.70;99.90
17152;DHT22;8691;50.828;4.700;2023-02-12T12:00:34;9.70;99.90
17152;DHT22;8691;50.828;4.700;2023-02-12T12:05:52;9.90;99.90
17152;DHT22;8691;50.828;4.700;2023-02-12T12:08:27;9.70;99.90
17152;DHT22;8691;50.828;4.700;2023-02-12T12:10:57;9.70;99.90
17152;DHT22;8691;50.828;4.700;2023-02-12T12:13:34;9.60;99.90
17152;DHT22;8691;50.828;4.700;2023-02-12T12:16:10;9.60;99.90
17152;DHT22;8691;50.828;4.700;2023-02-12T12:19:14;9.60;99.90
17152;DHT22;8691;50.828;4.700;2023-02-12T12:21:56;9.70;99.90
17152;DHT22;8691;50.828;4.700;2023-02-12T12:24:22;9.70;99.90
17152;DHT22;8691;50.828;4.700;2023-02-12T12:27:53;9.70;99.90
17152;DHT22;8691;50.828;4.700;2023-02-12T12:29:25;9.60;99.90
17152;DHT22;8691;50.828;4.700;2023-02-12T12:31:52;9.70;99.90
17152;DHT22;8691;50.828;4.700;2023-02-12T12:34:18;9.60;99.90
17152;DHT22;8691;50.828;4.700;2023-02-12T12:40:02;9.60;99.90
17152;DHT22;8691;50.828;4.700;2023-02-12T12:51:39;9.70;99.90
17152;DHT22;8691;50.828;4.700;2023-02-12T12:54:22;9.70;99.90
17152;DHT22;8691;50.828;4.700;2023-02-12T12:56:52;9.70;99.90
17152;DHT22;8691;50.828;4.700;2023-02-12T13:10:56;9.80;99.90
17152;DHT22;8691;50.828;4.700;2023-02-12T13:13:38;9.80;99.90
17152;DHT22;8691;50.828;4.700;2023-02-12T13:21:33;9.80;99.90
17152;DHT22;8691;50.828;4.700;2023-02-12T13:27:06;9.90;99.90
17152;DHT22;8691;50.828;4.700;2023-02-12T13:29:39;9.80;99.90
17152;DHT22;8691;50.828;4.700;2023-02-12T13:32:06;9.80;99.90
17152;DHT22;8691;50.828;4.700;2023-02-12T13:34:31;9.80;99.90
17152;DHT22;8691;50.828;4.700;2023-02-12T13:36:59;9.80;99.90
17152;DHT22;8691;50.828;4.700;2023-02-12T13:39:26;9.80;99.90
17152;DHT22;8691;50.828;4.700;2023-02-12T13:47:11;9.80;99.90
17152;DHT22;8691;50.828;4.700;2023-02-12T13:52:36;9.90;99.90
17152;DHT22;8691;50.828;4.700;2023-02-12T13:57:35;10.00;99.90
17152;DHT22;8691;50.828;4.700;2023-02-12T14:00:02;10.10;99.90
17152;DHT22;8691;50.828;4.700;2023-02-12T14:05:14;9.90;99.90
17152;DHT22;8691;50.828;4.700;2023-02-12T14:07:49;9.80;99.90
17152;DHT22;8691;50.828;4.700;2023-02-12T14:10:22;9.80;99.90
17152;DHT22;8691;50.828;4.700;2023-02-12T14:12:45;9.80;99.90
17152;DHT22;8691;50.828;4.700;2023-02-12T14:20:37;9.70;99.90
17152;DHT22;8691;50.828;4.700;2023-02-12T14:23:20;9.70;99.90
17152;DHT22;8691;50.828;4.700;2023-02-12T14:26:04;9.70;99.90
17152;DHT22;8691;50.828;4.700;2023-02-12T14:28:31;9.70;99.90
17152;DHT22;8691;50.828;4.700;2023-02-12T14:33:47;9.60;99.90
17152;DHT22;8691;50.828;4.700;2023-02-12T14:36:16;9.60;99.90
17152;DHT22;8691;50.828;4.700;2023-02-12T14:41:31;9.60;99.90
17152;DHT22;8691;50.828;4.700;2023-02-12T14:47:09;9.60;99.90
17152;DHT22;8691;50.828;4.700;2023-02-12T14:51:56;9.40;99.90
17152;DHT22;8691;50.828;4.700;2023-02-12T14:56:59;9.40;99.90
17152;DHT22;8691;50.828;4.700;2023-02-12T14:59:24;9.50;99.90
17152;DHT22;8691;50.828;4.700;2023-02-12T15:01:51;9.50;99.90
17152;DHT22;8691;50.828;4.700;2023-02-12T15:04:28;9.40;99.90
17152;DHT22;8691;50.828;4.700;2023-02-12T15:09:30;9.40;99.90
17152;DHT22;8691;50.828;4.700;2023-02-12T15:12:04;9.40;99.90
17152;DHT22;8691;50.828;4.700;2023-02-12T15:14:30;9.40;99.90
17152;DHT22;8691;50.828;4.700;2023-02-12T15:19:53;9.30;99.90
17152;DHT22;8691;50.828;4.700;2023-02-12T15:22:21;9.20;99.90
17152;DHT22;8691;50.828;4.700;2023-02-12T15:24:47;9.20;99.90
17152;DHT22;8691;50.828;4.700;2023-02-12T15:27:14;9.20;99.90
17152;DHT22;8691;50.828;4.700;2023-02-12T15:29:44;9.20;99.90
17152;DHT22;8691;50.828;4.700;2023-02-12T15:32:15;9.10;99.90
17152;DHT22;8691;50.828;4.700;2023-02-12T15:34:40;9.10;99.90
17152;DHT22;8691;50.828;4.700;2023-02-12T15:37:07;9.10;99.90
17152;DHT22;8691;50.828;4.700;2023-02-12T15:39:41;9.00;99.90
17152;DHT22;8691;50.828;4.700;2023-02-12T15:44:48;9.00;99.90
17152;DHT22;8691;50.828;4.700;2023-02-12T15:47:15;9.00;99.90
17152;DHT22;8691;50.828;4.700;2023-02-12T15:49:42;9.00;99.90
17152;DHT22;8691;50.828;4.700;2023-02-12T15:52:18;8.90;99.90
17152;DHT22;8691;50.828;4.700;2023-02-12T15:54:45;8.90;99.90
17152;DHT22;8691;50.828;4.700;2023-02-12T15:57:13;8.90;99.90
17152;DHT22;8691;50.828;4.700;2023-02-12T15:59:39;8.80;99.90
17152;DHT22;8691;50.828;4.700;2023-02-12T16:02:24;8.80;99.90
17152;DHT22;8691;50.828;4.700;2023-02-12T16:04:48;8.80;99.90
17152;DHT22;8691;50.828;4.700;2023-02-12T16:07:14;8.70;99.90
17152;DHT22;8691;50.828;4.700;2023-02-12T16:09:41;8.80;99.90
17152;DHT22;8691;50.828;4.700;2023-02-12T16:12:11;8.80;99.90
17152;DHT22;8691;50.828;4.700;2023-02-12T16:14:37;8.90;99.90
17152;DHT22;8691;50.828;4.700;2023-02-12T16:17:02;8.80;99.90
17152;DHT22;8691;50.828;4.700;2023-02-12T16:19:32;8.80;99.90
17152;DHT22;8691;50.828;4.700;2023-02-12T16:24:32;8.80;99.90
17152;DHT22;8691;50.828;4.700;2023-02-12T16:26:55;8.90;99.90
17152;DHT22;8691;50.828;4.700;2023-02-12T16:29:22;8.80;99.90
17152;DHT22;8691;50.828;4.700;2023-02-12T16:31:52;8.80;99.90
17152;DHT22;8691;50.828;4.700;2023-02-12T16:34:35;8.60;99.90
17152;DHT22;8691;50.828;4.700;2023-02-12T16:37:01;8.70;99.90
17152;DHT22;8691;50.828;4.700;2023-02-12T16:42:19;8.60;99.90
17152;DHT22;8691;50.828;4.700;2023-02-12T16:44:46;8.60;99.90
17152;DHT22;8691;50.828;4.700;2023-02-12T16:47:18;8.60;99.90
17152;DHT22;8691;50.828;4.700;2023-02-12T16:49:40;8.50;99.90
17152;DHT22;8691;50.828;4.700;2023-02-12T16:52:19;8.50;99.90
17152;DHT22;8691;50.828;4.700;2023-02-12T16:54:45;8.50;99.90
17152;DHT22;8691;50.828;4.700;2023-02-12T16:57:11;8.50;99.90
17152;DHT22;8691;50.828;4.700;2023-02-12T16:59:38;8.40;99.90
17152;DHT22;8691;50.828;4.700;2023-02-12T17:02:15;8.40;99.90
17152;DHT22;8691;50.828;4.700;2023-02-12T17:04:32;8.40;99.90
17152;DHT22;8691;50.828;4.700;2023-02-12T17:06:59;8.40;99.90
17152;DHT22;8691;50.828;4.700;2023-02-12T17:09:27;8.40;99.90
17152;DHT22;8691;50.828;4.700;2023-02-12T17:11:55;8.40;99.90
17152;DHT22;8691;50.828;4.700;2023-02-12T17:14:20;8.40;99.90
17152;DHT22;8691;50.828;4.700;2023-02-12T17:16:47;8.30;99.90
17152;DHT22;8691;50.828;4.700;2023-02-12T17:19:14;8.40;99.90
17152;DHT22;8691;50.828;4.700;2023-02-12T17:21:43;8.30;99.90
17152;DHT22;8691;50.828;4.700;2023-02-12T17:24:19;8.30;99.90
17152;DHT22;8691;50.828;4.700;2023-02-12T17:26:45;8.30;99.90
17152;DHT22;8691;50.828;4.700;2023-02-12T17:29:12;8.30;99.90
17152;DHT22;8691;50.828;4.700;2023-02-12T17:31:38;8.20;99.90
17152;DHT22;8691;50.828;4.700;2023-02-12T17:34:05;8.20;99.90
17152;DHT22;8691;50.828;4.700;2023-02-12T17:36:31;8.20;99.90
17152;DHT22;8691;50.828;4.700;2023-02-12T17:38:58;8.20;99.90
17152;DHT22;8691;50.828;4.700;2023-02-12T17:41:25;8.20;99.90
17152;DHT22;8691;50.828;4.700;2023-02-12T17:43:52;8.20;99.90
17152;DHT22;8691;50.828;4.700;2023-02-12T17:46:23;8.20;99.90
17152;DHT22;8691;50.828;4.700;2023-02-12T17:48:48;8.20;99.90
17152;DHT22;8691;50.828;4.700;2023-02-12T17:51:15;8.20;99.90
17152;DHT22;8691;50.828;4.700;2023-02-12T17:53:42;8.20;99.90
17152;DHT22;8691;50.828;4.700;2023-02-12T17:56:13;8.20;99.90
17152;DHT22;8691;50.828;4.700;2023-02-12T17:58:40;8.20;99.90
17152;DHT22;8691;50.828;4.700;2023-02-12T18:01:06;8.20;99.90
17152;DHT22;8691;50.828;4.700;2023-02-12T18:03:33;8.20;99.90
17152;DHT22;8691;50.828;4.700;2023-02-12T18:05:59;8.20;99.90
17152;DHT22;8691;50.828;4.700;2023-02-12T18:08:27;8.20;99.90
17152;DHT22;8691;50.828;4.700;2023-02-12T18:10:53;8.10;99.90
17152;DHT22;8691;50.828;4.700;2023-02-12T18:13:20;8.20;99.90
17152;DHT22;8691;50.828;4.700;2023-02-12T18:15:46;8.10;99.90
17152;DHT22;8691;50.828;4.700;2023-02-12T18:18:13;8.10;99.90
17152;DHT22;8691;50.828;4.700;2023-02-12T18:20:40;8.10;99.90
17152;DHT22;8691;50.828;4.700;2023-02-12T18:23:07;8.10;99.90
17152;DHT22;8691;50.828;4.700;2023-02-12T18:25:34;8.20;99.90
17152;DHT22;8691;50.828;4.700;2023-02-12T18:28:00;8.20;99.90
17152;DHT22;8691;50.828;4.700;2023-02-12T18:30:27;8.20;99.90
17152;DHT22;8691;50.828;4.700;2023-02-12T18:32:54;8.10;99.90
17152;DHT22;8691;50.828;4.700;2023-02-12T18:35:21;8.10;99.90